sensor_id;sensor_type;location;lat;lon;timestamp;P1;durP1;ratioP1;P2;durP2;ratioP2
8279;SDS011;8335;42.646;23.380;2023-03-23T00:00:57;73.73;;;35.10;;
8279;SDS011;8335;42.646;23.380;2023-03-23T00:03:24;103.47;;;36.77;;
8279;SDS011;8335;42.646;23.380;2023-03-23T00:05:53;70.93;;;33.43;;
8279;SDS011;8335;42.646;23.380;2023-03-23T00:08:27;106.33;;;36.00;;
8279;SDS011;8335;42.646;23.380;2023-03-23T00:10:55;84.83;;;35.23;;
8279;SDS011;8335;42.646;23.380;2023-03-23T00:13:22;115.70;;;34.60;;
8279;SDS011;8335;42.646;23.380;2023-03-23T00:15:50;50.73;;;29.37;;
8279;SDS011;8335;42.646;23.380;2023-03-23T00:18:19;53.77;;;31.37;;
8279;SDS011;8335;42.646;23.380;2023-03-23T00:20:49;53.83;;;31.27;;
8279;SDS011;8335;42.646;23.380;2023-03-23T00:23:18;52.50;;;30.17;;
8279;SDS011;8335;42.646;23.380;2023-03-23T00:25:46;54.13;;;32.77;;
8279;SDS011;8335;42.646;23.380;2023-03-23T00:28:14;51.10;;;30.90;;
8279;SDS011;8335;42.646;23.380;2023-03-23T00:30:42;45.60;;;28.30;;
8279;SDS011;8335;42.646;23.380;2023-03-23T00:33:10;46.80;;;28.20;;
8279;SDS011;8335;42.646;23.380;2023-03-23T00:35:40;45.57;;;27.33;;
8279;SDS011;8335;42.646;23.380;2023-03-23T00:38:09;45.03;;;27.40;;
8279;SDS011;8335;42.646;23.380;2023-03-23T00:40:36;45.03;;;27.80;;
8279;SDS011;8335;42.646;23.380;2023-03-23T00:43:03;48.70;;;26.43;;
8279;SDS011;8335;42.646;23.380;2023-03-23T00:45:30;40.30;;;26.90;;
8279;SDS011;8335;42.646;23.380;2023-03-23T00:47:59;35.70;;;22.40;;
8279;SDS011;8335;42.646;23.380;2023-03-23T00:50:27;30.60;;;19.77;;
8279;SDS011;8335;42.646;23.380;2023-03-23T00:52:55;31.20;;;17.87;;
8279;SDS011;8335;42.646;23.380;2023-03-23T00:55:23;35.10;;;21.70;;
8279;SDS011;8335;42.646;23.380;2023-03-23T00:57:50;28.17;;;17.93;;
8279;SDS011;8335;42.646;23.380;2023-03-23T01:00:19;26.17;;;15.77;;
8279;SDS011;8335;42.646;23.380;2023-03-23T01:02:47;22.93;;;15.73;;
8279;SDS011;8335;42.646;23.380;2023-03-23T01:05:13;23.47;;;14.77;;
8279;SDS011;8335;42.646;23.380;2023-03-23T01:07:41;20.70;;;13.97;;
8279;SDS011;8335;42.646;23.380;2023-03-23T01:10:11;23.00;;;14.77;;
8279;SDS011;8335;42.646;23.380;2023-03-23T01:12:41;21.97;;;13.43;;
8279;SDS011;8335;42.646;23.380;2023-03-23T01:15:09;21.20;;;13.93;;
8279;SDS011;8335;42.646;23.380;2023-03-23T01:17:39;18.90;;;12.73;;
8279;SDS011;8335;42.646;23.380;2023-03-23T01:20:07;19.10;;;13.20;;
8279;SDS011;8335;42.646;23.380;2023-03-23T01:22:34;20.00;;;13.07;;
8279;SDS011;8335;42.646;23.380;2023-03-23T01:25:01;21.70;;;14.03;;
8279;SDS011;8335;42.646;23.380;2023-03-23T01:27:29;21.17;;;13.73;;
8279;SDS011;8335;42.646;23.380;2023-03-23T01:29:55;21.70;;;15.07;;
8279;SDS011;8335;42.646;23.380;2023-03-23T01:32:22;23.00;;;15.33;;
8279;SDS011;8335;42.646;23.380;2023-03-23T01:34:49;24.67;;;15.60;;
8279;SDS011;8335;42.646;23.380;2023-03-23T01:37:16;25.60;;;15.93;;
8279;SDS011;8335;42.646;23.380;2023-03-23T01:39:43;25.07;;;16.17;;
8279;SDS011;8335;42.646;23.380;2023-03-23T01:42:10;25.67;;;16.10;;
8279;SDS011;8335;42.646;23.380;2023-03-23T01:47:41;29.40;;;19.13;;
8279;SDS011;8335;42.646;23.380;2023-03-23T01:50:08;29.77;;;19.50;;
8279;SDS011;8335;42.646;23.380;2023-03-23T01:52:35;34.07;;;19.33;;
8279;SDS011;8335;42.646;23.380;2023-03-23T01:55:02;31.07;;;19.40;;
8279;SDS011;8335;42.646;23.380;2023-03-23T01:57:30;35.00;;;21.57;;
8279;SDS011;8335;42.646;23.380;2023-03-23T01:59:58;33.57;;;21.83;;
8279;SDS011;8335;42.646;23.380;2023-03-23T02:02:33;37.80;;;23.93;;
8279;SDS011;8335;42.646;23.380;2023-03-23T02:05:02;46.27;;;23.90;;
8279;SDS011;8335;42.646;23.380;2023-03-23T02:07:35;43.07;;;25.90;;
8279;SDS011;8335;42.646;23.380;2023-03-23T02:10:01;44.87;;;26.63;;
8279;SDS011;8335;42.646;23.380;2023-03-23T02:12:28;45.60;;;27.07;;
8279;SDS011;8335;42.646;23.380;2023-03-23T02:14:55;46.37;;;27.77;;
8279;SDS011;8335;42.646;23.380;2023-03-23T02:17:23;44.10;;;26.63;;
8279;SDS011;8335;42.646;23.380;2023-03-23T02:20:04;46.53;;;26.63;;
8279;SDS011;8335;42.646;23.380;2023-03-23T02:22:45;45.97;;;28.20;;
8279;SDS011;8335;42.646;23.380;2023-03-23T02:25:32;47.43;;;28.80;;
8279;SDS011;8335;42.646;23.380;2023-03-23T02:31:32;41.00;;;24.73;;
8279;SDS011;8335;42.646;23.380;2023-03-23T02:34:21;34.77;;;21.70;;
8279;SDS011;8335;42.646;23.380;2023-03-23T02:36:55;35.60;;;22.13;;
8279;SDS011;8335;42.646;23.380;2023-03-23T02:39:28;37.03;;;21.40;;
8279;SDS011;8335;42.646;23.380;2023-03-23T02:41:58;36.43;;;22.77;;
8279;SDS011;8335;42.646;23.380;2023-03-23T02:44:29;36.27;;;22.57;;
8279;SDS011;8335;42.646;23.380;2023-03-23T02:46:59;37.57;;;23.57;;
8279;SDS011;8335;42.646;23.380;2023-03-23T02:49:31;33.50;;;20.43;;
8279;SDS011;8335;42.646;23.380;2023-03-23T02:52:02;34.67;;;21.30;;
8279;SDS011;8335;42.646;23.380;2023-03-23T02:54:31;31.53;;;18.73;;
8279;SDS011;8335;42.646;23.380;2023-03-23T02:56:58;29.77;;;19.07;;
8279;SDS011;8335;42.646;23.380;2023-03-23T02:59:26;31.93;;;18.87;;
8279;SDS011;8335;42.646;23.380;2023-03-23T03:02:04;30.97;;;19.33;;
8279;SDS011;8335;42.646;23.380;2023-03-23T03:04:34;34.43;;;19.57;;
8279;SDS011;8335;42.646;23.380;2023-03-23T03:07:07;37.83;;;21.20;;
8279;SDS011;8335;42.646;23.380;2023-03-23T03:09:50;32.23;;;19.37;;
8279;SDS011;8335;42.646;23.380;2023-03-23T03:12:24;32.83;;;19.97;;
8279;SDS011;8335;42.646;23.380;2023-03-23T03:15:04;29.97;;;18.53;;
8279;SDS011;8335;42.646;23.380;2023-03-23T03:17:38;28.30;;;16.93;;
8279;SDS011;8335;42.646;23.380;2023-03-23T03:20:12;27.80;;;17.03;;
8279;SDS011;8335;42.646;23.380;2023-03-23T03:22:41;29.33;;;16.87;;
8279;SDS011;8335;42.646;23.380;2023-03-23T03:25:10;26.53;;;16.77;;
8279;SDS011;8335;42.646;23.380;2023-03-23T03:27:40;28.60;;;17.70;;
8279;SDS011;8335;42.646;23.380;2023-03-23T03:30:11;27.37;;;17.10;;
8279;SDS011;8335;42.646;23.380;2023-03-23T03:32:41;28.70;;;18.10;;
8279;SDS011;8335;42.646;23.380;2023-03-23T03:35:15;29.30;;;17.40;;
8279;SDS011;8335;42.646;23.380;2023-03-23T03:37:42;24.20;;;16.10;;
8279;SDS011;8335;42.646;23.380;2023-03-23T03:40:10;26.77;;;16.90;;
8279;SDS011;8335;42.646;23.380;2023-03-23T03:42:39;22.17;;;15.13;;
8279;SDS011;8335;42.646;23.380;2023-03-23T03:45:08;22.83;;;15.37;;
8279;SDS011;8335;42.646;23.380;2023-03-23T03:47:36;22.70;;;14.50;;
8279;SDS011;8335;42.646;23.380;2023-03-23T03:50:03;23.83;;;14.63;;
8279;SDS011;8335;42.646;23.380;2023-03-23T03:52:33;20.90;;;14.10;;
8279;SDS011;8335;42.646;23.380;2023-03-23T03:55:00;22.53;;;14.13;;
8279;SDS011;8335;42.646;23.380;2023-03-23T03:57:27;19.73;;;13.03;;
8279;SDS011;8335;42.646;23.380;2023-03-23T03:59:53;23.53;;;14.27;;
8279;SDS011;8335;42.646;23.380;2023-03-23T04:02:21;25.20;;;14.13;;
8279;SDS011;8335;42.646;23.380;2023-03-23T04:04:48;22.50;;;14.60;;
8279;SDS011;8335;42.646;23.380;2023-03-23T04:07:17;21.77;;;13.50;;
8279;SDS011;8335;42.646;23.380;2023-03-23T04:09:46;22.50;;;14.77;;
8279;SDS011;8335;42.646;23.380;2023-03-23T04:12:13;22.77;;;13.57;;
8279;SDS011;8335;42.646;23.380;2023-03-23T04:14:40;23.73;;;14.60;;
8279;SDS011;8335;42.646;23.380;2023-03-23T04:17:07;22.10;;;14.10;;
8279;SDS011;8335;42.646;23.380;2023-03-23T04:19:35;21.63;;;14.03;;
8279;SDS011;8335;42.646;23.380;2023-03-23T04:22:02;22.63;;;13.70;;
8279;SDS011;8335;42.646;23.380;2023-03-23T04:24:29;21.40;;;14.33;;
8279;SDS011;8335;42.646;23.380;2023-03-23T04:26:59;23.13;;;13.80;;
8279;SDS011;8335;42.646;23.380;2023-03-23T04:29:26;21.87;;;13.97;;
8279;SDS011;8335;42.646;23.380;2023-03-23T04:31:53;21.83;;;14.13;;
8279;SDS011;8335;42.646;23.380;2023-03-23T04:34:28;24.37;;;14.37;;
8279;SDS011;8335;42.646;23.380;2023-03-23T04:36:59;21.50;;;14.00;;
8279;SDS011;8335;42.646;23.380;2023-03-23T04:39:25;23.23;;;13.10;;
8279;SDS011;8335;42.646;23.380;2023-03-23T04:41:54;18.57;;;13.47;;
8279;SDS011;8335;42.646;23.380;2023-03-23T04:44:22;21.77;;;13.90;;
8279;SDS011;8335;42.646;23.380;2023-03-23T04:46:49;23.83;;;14.37;;
8279;SDS011;8335;42.646;23.380;2023-03-23T04:49:19;20.63;;;14.10;;
8279;SDS011;8335;42.646;23.380;2023-03-23T04:51:46;21.67;;;14.03;;
8279;SDS011;8335;42.646;23.380;2023-03-23T04:54:15;23.80;;;14.40;;
8279;SDS011;8335;42.646;23.380;2023-03-23T04:56:42;24.77;;;15.83;;
8279;SDS011;8335;42.646;23.380;2023-03-23T04:59:09;22.03;;;14.80;;
8279;SDS011;8335;42.646;23.380;2023-03-23T05:01:39;26.63;;;15.30;;
8279;SDS011;8335;42.646;23.380;2023-03-23T05:04:10;22.30;;;15.53;;
8279;SDS011;8335;42.646;23.380;2023-03-23T05:06:41;24.47;;;15.40;;
8279;SDS011;8335;42.646;23.380;2023-03-23T05:09:09;21.23;;;13.50;;
8279;SDS011;8335;42.646;23.380;2023-03-23T05:11:36;20.73;;;13.77;;
8279;SDS011;8335;42.646;23.380;2023-03-23T05:14:03;24.00;;;15.07;;
8279;SDS011;8335;42.646;23.380;2023-03-23T05:16:30;24.37;;;14.93;;
8279;SDS011;8335;42.646;23.380;2023-03-23T05:18:59;24.13;;;15.33;;
8279;SDS011;8335;42.646;23.380;2023-03-23T05:21:25;21.73;;;15.70;;
8279;SDS011;8335;42.646;23.380;2023-03-23T05:23:53;25.20;;;15.50;;
8279;SDS011;8335;42.646;23.380;2023-03-23T05:26:20;25.57;;;16.17;;
8279;SDS011;8335;42.646;23.380;2023-03-23T05:28:48;20.70;;;14.00;;
8279;SDS011;8335;42.646;23.380;2023-03-23T05:31:17;23.17;;;16.33;;
8279;SDS011;8335;42.646;23.380;2023-03-23T05:33:44;30.50;;;17.07;;
8279;SDS011;8335;42.646;23.380;2023-03-23T05:36:12;37.60;;;20.97;;
8279;SDS011;8335;42.646;23.380;2023-03-23T05:38:39;30.87;;;20.33;;
8279;SDS011;8335;42.646;23.380;2023-03-23T05:41:10;35.30;;;21.67;;
8279;SDS011;8335;42.646;23.380;2023-03-23T05:43:37;37.27;;;22.70;;
8279;SDS011;8335;42.646;23.380;2023-03-23T05:46:04;43.03;;;23.67;;
8279;SDS011;8335;42.646;23.380;2023-03-23T05:48:30;38.20;;;23.27;;
8279;SDS011;8335;42.646;23.380;2023-03-23T05:50:58;33.20;;;21.50;;
8279;SDS011;8335;42.646;23.380;2023-03-23T05:53:26;39.57;;;24.10;;
8279;SDS011;8335;42.646;23.380;2023-03-23T05:55:57;40.93;;;23.17;;
8279;SDS011;8335;42.646;23.380;2023-03-23T05:58:24;34.23;;;22.30;;
8279;SDS011;8335;42.646;23.380;2023-03-23T06:00:51;34.17;;;21.83;;
8279;SDS011;8335;42.646;23.380;2023-03-23T06:03:18;37.40;;;21.87;;
8279;SDS011;8335;42.646;23.380;2023-03-23T06:05:46;38.40;;;23.30;;
8279;SDS011;8335;42.646;23.380;2023-03-23T06:08:12;33.77;;;21.33;;
8279;SDS011;8335;42.646;23.380;2023-03-23T06:10:41;33.27;;;20.43;;
8279;SDS011;8335;42.646;23.380;2023-03-23T06:13:07;39.53;;;20.47;;
8279;SDS011;8335;42.646;23.380;2023-03-23T06:15:34;30.97;;;19.57;;
8279;SDS011;8335;42.646;23.380;2023-03-23T06:18:01;26.67;;;17.53;;
8279;SDS011;8335;42.646;23.380;2023-03-23T06:20:28;27.70;;;16.40;;
8279;SDS011;8335;42.646;23.380;2023-03-23T06:22:56;28.20;;;17.83;;
8279;SDS011;8335;42.646;23.380;2023-03-23T06:25:22;22.97;;;16.40;;
8279;SDS011;8335;42.646;23.380;2023-03-23T06:27:51;20.80;;;13.87;;
8279;SDS011;8335;42.646;23.380;2023-03-23T06:30:18;21.63;;;13.20;;
8279;SDS011;8335;42.646;23.380;2023-03-23T06:32:45;16.90;;;12.00;;
8279;SDS011;8335;42.646;23.380;2023-03-23T06:35:13;17.23;;;11.80;;
8279;SDS011;8335;42.646;23.380;2023-03-23T06:37:40;16.03;;;10.63;;
8279;SDS011;8335;42.646;23.380;2023-03-23T06:40:07;14.27;;;10.50;;
8279;SDS011;8335;42.646;23.380;2023-03-23T06:42:35;17.20;;;11.43;;
8279;SDS011;8335;42.646;23.380;2023-03-23T06:45:05;19.03;;;11.67;;
8279;SDS011;8335;42.646;23.380;2023-03-23T06:47:33;13.90;;;10.97;;
8279;SDS011;8335;42.646;23.380;2023-03-23T06:50:00;16.87;;;10.80;;
8279;SDS011;8335;42.646;23.380;2023-03-23T06:52:27;13.93;;;11.65;;
8279;SDS011;8335;42.646;23.380;2023-03-23T06:54:54;13.50;;;11.35;;
8279;SDS011;8335;42.646;23.380;2023-03-23T06:57:20;14.40;;;10.45;;
8279;SDS011;8335;42.646;23.380;2023-03-23T06:59:47;16.08;;;11.40;;
8279;SDS011;8335;42.646;23.380;2023-03-23T07:02:16;13.30;;;10.27;;
8279;SDS011;8335;42.646;23.380;2023-03-23T07:04:43;15.68;;;9.77;;
8279;SDS011;8335;42.646;23.380;2023-03-23T07:07:10;12.25;;;9.90;;
8279;SDS011;8335;42.646;23.380;2023-03-23T07:09:39;12.10;;;10.00;;
8279;SDS011;8335;42.646;23.380;2023-03-23T07:12:07;14.27;;;10.27;;
8279;SDS011;8335;42.646;23.380;2023-03-23T07:14:34;13.85;;;10.10;;
8279;SDS011;8335;42.646;23.380;2023-03-23T07:17:02;13.00;;;10.55;;
8279;SDS011;8335;42.646;23.380;2023-03-23T07:19:31;17.15;;;11.50;;
8279;SDS011;8335;42.646;23.380;2023-03-23T07:21:57;17.67;;;11.65;;
8279;SDS011;8335;42.646;23.380;2023-03-23T07:24:25;18.13;;;13.63;;
8279;SDS011;8335;42.646;23.380;2023-03-23T07:26:51;21.88;;;15.45;;
8279;SDS011;8335;42.646;23.380;2023-03-23T07:29:18;21.77;;;15.23;;
8279;SDS011;8335;42.646;23.380;2023-03-23T07:31:45;25.90;;;16.58;;
8279;SDS011;8335;42.646;23.380;2023-03-23T07:34:12;23.70;;;16.63;;
8279;SDS011;8335;42.646;23.380;2023-03-23T07:36:41;22.80;;;15.65;;
8279;SDS011;8335;42.646;23.380;2023-03-23T07:39:08;21.48;;;17.13;;
8279;SDS011;8335;42.646;23.380;2023-03-23T07:41:35;22.48;;;17.08;;
8279;SDS011;8335;42.646;23.380;2023-03-23T07:44:02;22.15;;;16.30;;
8279;SDS011;8335;42.646;23.380;2023-03-23T07:46:29;26.23;;;17.98;;
8279;SDS011;8335;42.646;23.380;2023-03-23T07:48:56;35.75;;;19.35;;
8279;SDS011;8335;42.646;23.380;2023-03-23T07:51:23;28.23;;;18.52;;
8279;SDS011;8335;42.646;23.380;2023-03-23T07:53:52;22.60;;;16.67;;
8279;SDS011;8335;42.646;23.380;2023-03-23T07:56:19;22.13;;;17.08;;
8279;SDS011;8335;42.646;23.380;2023-03-23T07:58:46;22.83;;;17.92;;
8279;SDS011;8335;42.646;23.380;2023-03-23T08:01:13;22.80;;;16.70;;
8279;SDS011;8335;42.646;23.380;2023-03-23T08:03:41;24.38;;;18.33;;
8279;SDS011;8335;42.646;23.380;2023-03-23T08:06:08;27.00;;;17.58;;
8279;SDS011;8335;42.646;23.380;2023-03-23T08:08:35;25.02;;;16.88;;
8279;SDS011;8335;42.646;23.380;2023-03-23T08:11:04;23.63;;;16.63;;
8279;SDS011;8335;42.646;23.380;2023-03-23T08:13:31;22.52;;;17.50;;
8279;SDS011;8335;42.646;23.380;2023-03-23T08:15:59;25.63;;;17.73;;
8279;SDS011;8335;42.646;23.380;2023-03-23T08:18:28;28.60;;;18.45;;
8279;SDS011;8335;42.646;23.380;2023-03-23T08:20:55;22.77;;;16.63;;
8279;SDS011;8335;42.646;23.380;2023-03-23T08:23:22;25.40;;;17.95;;
8279;SDS011;8335;42.646;23.380;2023-03-23T08:25:49;19.58;;;16.45;;
8279;SDS011;8335;42.646;23.380;2023-03-23T08:28:17;26.20;;;14.73;;
8279;SDS011;8335;42.646;23.380;2023-03-23T08:30:44;17.58;;;14.65;;
8279;SDS011;8335;42.646;23.380;2023-03-23T08:33:11;22.10;;;15.20;;
8279;SDS011;8335;42.646;23.380;2023-03-23T08:35:39;22.05;;;14.88;;
8279;SDS011;8335;42.646;23.380;2023-03-23T08:38:07;18.67;;;13.90;;
8279;SDS011;8335;42.646;23.380;2023-03-23T08:40:34;18.13;;;13.63;;
8279;SDS011;8335;42.646;23.380;2023-03-23T08:43:01;16.92;;;12.65;;
8279;SDS011;8335;42.646;23.380;2023-03-23T08:45:30;17.75;;;12.57;;
8279;SDS011;8335;42.646;23.380;2023-03-23T08:47:57;14.98;;;11.98;;
8279;SDS011;8335;42.646;23.380;2023-03-23T08:50:25;12.65;;;11.07;;
8279;SDS011;8335;42.646;23.380;2023-03-23T08:52:55;13.75;;;11.20;;
8279;SDS011;8335;42.646;23.380;2023-03-23T08:55:23;11.15;;;8.45;;
8279;SDS011;8335;42.646;23.380;2023-03-23T08:57:51;7.43;;;6.43;;
8279;SDS011;8335;42.646;23.380;2023-03-23T09:00:19;10.75;;;8.73;;
8279;SDS011;8335;42.646;23.380;2023-03-23T09:02:52;9.00;;;7.75;;
8279;SDS011;8335;42.646;23.380;2023-03-23T09:05:22;8.90;;;7.72;;
8279;SDS011;8335;42.646;23.380;2023-03-23T09:07:51;8.57;;;7.55;;
8279;SDS011;8335;42.646;23.380;2023-03-23T09:10:19;7.95;;;7.13;;
8279;SDS011;8335;42.646;23.380;2023-03-23T09:12:47;8.15;;;7.07;;
8279;SDS011;8335;42.646;23.380;2023-03-23T09:15:15;8.73;;;7.60;;
8279;SDS011;8335;42.646;23.380;2023-03-23T09:17:44;9.75;;;7.35;;
8279;SDS011;8335;42.646;23.380;2023-03-23T09:20:14;10.05;;;7.70;;
8279;SDS011;8335;42.646;23.380;2023-03-23T09:22:42;11.07;;;7.60;;
8279;SDS011;8335;42.646;23.380;2023-03-23T09:25:12;11.60;;;7.55;;
8279;SDS011;8335;42.646;23.380;2023-03-23T09:27:40;10.68;;;7.63;;
8279;SDS011;8335;42.646;23.380;2023-03-23T09:30:09;13.40;;;8.57;;
8279;SDS011;8335;42.646;23.380;2023-03-23T09:32:38;10.95;;;7.75;;
8279;SDS011;8335;42.646;23.380;2023-03-23T09:35:06;9.15;;;7.30;;
8279;SDS011;8335;42.646;23.380;2023-03-23T09:37:38;8.52;;;6.95;;
8279;SDS011;8335;42.646;23.380;2023-03-23T09:40:06;11.57;;;8.00;;
8279;SDS011;8335;42.646;23.380;2023-03-23T09:42:41;12.80;;;7.43;;
8279;SDS011;8335;42.646;23.380;2023-03-23T09:45:23;8.18;;;7.10;;
8279;SDS011;8335;42.646;23.380;2023-03-23T09:48:00;10.68;;;7.85;;
8279;SDS011;8335;42.646;23.380;2023-03-23T09:50:39;7.18;;;5.97;;
8279;SDS011;8335;42.646;23.380;2023-03-23T09:53:12;9.90;;;7.15;;
8279;SDS011;8335;42.646;23.380;2023-03-23T09:55:42;8.65;;;7.05;;
8279;SDS011;8335;42.646;23.380;2023-03-23T09:58:12;7.90;;;6.95;;
8279;SDS011;8335;42.646;23.380;2023-03-23T10:00:46;8.52;;;7.10;;
8279;SDS011;8335;42.646;23.380;2023-03-23T10:03:18;12.55;;;7.28;;
8279;SDS011;8335;42.646;23.380;2023-03-23T10:05:49;9.73;;;7.45;;
8279;SDS011;8335;42.646;23.380;2023-03-23T10:08:19;7.60;;;6.80;;
8279;SDS011;8335;42.646;23.380;2023-03-23T10:10:56;8.50;;;6.25;;
8279;SDS011;8335;42.646;23.380;2023-03-23T10:13:31;7.45;;;6.53;;
8279;SDS011;8335;42.646;23.380;2023-03-23T10:16:09;8.38;;;6.80;;
8279;SDS011;8335;42.646;23.380;2023-03-23T10:18:40;7.28;;;6.25;;
8279;SDS011;8335;42.646;23.380;2023-03-23T10:21:13;7.22;;;6.25;;
8279;SDS011;8335;42.646;23.380;2023-03-23T10:23:47;7.85;;;6.32;;
8279;SDS011;8335;42.646;23.380;2023-03-23T10:26:33;8.45;;;7.20;;
8279;SDS011;8335;42.646;23.380;2023-03-23T10:29:12;8.70;;;6.20;;
8279;SDS011;8335;42.646;23.380;2023-03-23T10:31:46;10.48;;;6.88;;
8279;SDS011;8335;42.646;23.380;2023-03-23T10:34:17;9.43;;;6.45;;
8279;SDS011;8335;42.646;23.380;2023-03-23T10:36:54;8.80;;;7.05;;
8279;SDS011;8335;42.646;23.380;2023-03-23T10:39:29;6.70;;;6.00;;
8279;SDS011;8335;42.646;23.380;2023-03-23T10:42:01;7.13;;;5.90;;
8279;SDS011;8335;42.646;23.380;2023-03-23T10:44:32;8.98;;;6.18;;
8279;SDS011;8335;42.646;23.380;2023-03-23T10:47:00;7.05;;;6.35;;
8279;SDS011;8335;42.646;23.380;2023-03-23T10:49:30;7.47;;;6.13;;
8279;SDS011;8335;42.646;23.380;2023-03-23T10:52:03;8.05;;;6.25;;
8279;SDS011;8335;42.646;23.380;2023-03-23T10:54:46;7.28;;;6.53;;
8279;SDS011;8335;42.646;23.380;2023-03-23T10:57:22;8.63;;;7.05;;
8279;SDS011;8335;42.646;23.380;2023-03-23T10:59:57;7.75;;;6.63;;
8279;SDS011;8335;42.646;23.380;2023-03-23T11:02:24;9.60;;;7.00;;
8279;SDS011;8335;42.646;23.380;2023-03-23T11:05:00;7.82;;;6.57;;
8279;SDS011;8335;42.646;23.380;2023-03-23T11:07:29;8.63;;;6.75;;
8279;SDS011;8335;42.646;23.380;2023-03-23T11:10:05;8.90;;;7.10;;
8279;SDS011;8335;42.646;23.380;2023-03-23T11:12:43;8.10;;;6.75;;
8279;SDS011;8335;42.646;23.380;2023-03-23T11:15:16;7.40;;;6.53;;
8279;SDS011;8335;42.646;23.380;2023-03-23T11:18:01;8.75;;;6.18;;
8279;SDS011;8335;42.646;23.380;2023-03-23T11:20:32;11.85;;;6.90;;
8279;SDS011;8335;42.646;23.380;2023-03-23T11:23:07;8.38;;;6.93;;
8279;SDS011;8335;42.646;23.380;2023-03-23T11:25:51;8.05;;;6.60;;
8279;SDS011;8335;42.646;23.380;2023-03-23T11:28:21;8.95;;;6.72;;
8279;SDS011;8335;42.646;23.380;2023-03-23T11:30:52;7.85;;;6.85;;
8279;SDS011;8335;42.646;23.380;2023-03-23T11:33:20;8.38;;;6.78;;
8279;SDS011;8335;42.646;23.380;2023-03-23T11:35:50;10.88;;;6.55;;
8279;SDS011;8335;42.646;23.380;2023-03-23T11:38:21;13.25;;;6.75;;
8279;SDS011;8335;42.646;23.380;2023-03-23T11:40:53;10.93;;;7.15;;
8279;SDS011;8335;42.646;23.380;2023-03-23T11:43:21;10.52;;;7.40;;
8279;SDS011;8335;42.646;23.380;2023-03-23T11:45:51;10.70;;;6.75;;
8279;SDS011;8335;42.646;23.380;2023-03-23T11:48:25;8.90;;;6.65;;
8279;SDS011;8335;42.646;23.380;2023-03-23T11:50:59;8.23;;;7.03;;
8279;SDS011;8335;42.646;23.380;2023-03-23T11:56:19;10.90;;;6.93;;
8279;SDS011;8335;42.646;23.380;2023-03-23T11:58:50;12.55;;;6.47;;
8279;SDS011;8335;42.646;23.380;2023-03-23T12:01:26;9.18;;;6.47;;
8279;SDS011;8335;42.646;23.380;2023-03-23T12:07:04;8.35;;;7.18;;
8279;SDS011;8335;42.646;23.380;2023-03-23T12:10:04;9.63;;;6.50;;
8279;SDS011;8335;42.646;23.380;2023-03-23T12:12:43;9.25;;;6.40;;
8279;SDS011;8335;42.646;23.380;2023-03-23T12:15:22;6.47;;;5.68;;
8279;SDS011;8335;42.646;23.380;2023-03-23T12:17:55;7.85;;;5.90;;
8279;SDS011;8335;42.646;23.380;2023-03-23T12:20:34;9.68;;;6.47;;
8279;SDS011;8335;42.646;23.380;2023-03-23T12:23:12;8.60;;;7.10;;
8279;SDS011;8335;42.646;23.380;2023-03-23T12:25:52;8.32;;;6.50;;
8279;SDS011;8335;42.646;23.380;2023-03-23T12:28:37;8.67;;;7.00;;
8279;SDS011;8335;42.646;23.380;2023-03-23T12:31:14;9.50;;;6.10;;
8279;SDS011;8335;42.646;23.380;2023-03-23T12:33:48;9.75;;;5.88;;
8279;SDS011;8335;42.646;23.380;2023-03-23T12:36:27;10.18;;;6.40;;
8279;SDS011;8335;42.646;23.380;2023-03-23T12:39:09;11.10;;;6.85;;
8279;SDS011;8335;42.646;23.380;2023-03-23T12:41:45;10.50;;;6.60;;
8279;SDS011;8335;42.646;23.380;2023-03-23T12:44:20;10.32;;;6.22;;
8279;SDS011;8335;42.646;23.380;2023-03-23T12:47:02;10.50;;;6.50;;
8279;SDS011;8335;42.646;23.380;2023-03-23T12:49:40;8.33;;;6.07;;
8279;SDS011;8335;42.646;23.380;2023-03-23T12:52:14;9.38;;;6.65;;
8279;SDS011;8335;42.646;23.380;2023-03-23T12:54:47;7.27;;;6.07;;
8279;SDS011;8335;42.646;23.380;2023-03-23T12:57:20;8.00;;;6.20;;
8279;SDS011;8335;42.646;23.380;2023-03-23T12:59:59;10.80;;;6.23;;
8279;SDS011;8335;42.646;23.380;2023-03-23T13:02:37;11.33;;;7.20;;
8279;SDS011;8335;42.646;23.380;2023-03-23T13:05:09;8.50;;;6.30;;
8279;SDS011;8335;42.646;23.380;2023-03-23T13:07:41;10.37;;;6.50;;
8279;SDS011;8335;42.646;23.380;2023-03-23T13:10:15;9.70;;;6.70;;
8279;SDS011;8335;42.646;23.380;2023-03-23T13:12:47;14.37;;;7.60;;
8279;SDS011;8335;42.646;23.380;2023-03-23T13:15:20;9.20;;;6.95;;
8279;SDS011;8335;42.646;23.380;2023-03-23T13:17:54;9.35;;;7.25;;
8279;SDS011;8335;42.646;23.380;2023-03-23T13:20:32;9.00;;;6.27;;
8279;SDS011;8335;42.646;23.380;2023-03-23T13:23:08;10.83;;;6.93;;
8279;SDS011;8335;42.646;23.380;2023-03-23T13:25:43;8.93;;;6.63;;
8279;SDS011;8335;42.646;23.380;2023-03-23T13:28:15;8.93;;;6.60;;
8279;SDS011;8335;42.646;23.380;2023-03-23T13:30:57;9.63;;;6.73;;
8279;SDS011;8335;42.646;23.380;2023-03-23T13:33:25;8.77;;;6.28;;
8279;SDS011;8335;42.646;23.380;2023-03-23T13:35:56;7.17;;;6.13;;
8279;SDS011;8335;42.646;23.380;2023-03-23T13:38:30;8.50;;;6.50;;
8279;SDS011;8335;42.646;23.380;2023-03-23T13:40:57;8.53;;;6.63;;
8279;SDS011;8335;42.646;23.380;2023-03-23T13:43:32;10.30;;;6.30;;
8279;SDS011;8335;42.646;23.380;2023-03-23T13:46:22;7.23;;;5.67;;
8279;SDS011;8335;42.646;23.380;2023-03-23T13:49:02;7.83;;;5.87;;
8279;SDS011;8335;42.646;23.380;2023-03-23T13:51:33;9.50;;;6.13;;
8279;SDS011;8335;42.646;23.380;2023-03-23T13:54:12;10.50;;;7.00;;
8279;SDS011;8335;42.646;23.380;2023-03-23T13:56:42;9.37;;;6.63;;
8279;SDS011;8335;42.646;23.380;2023-03-23T13:59:14;7.67;;;6.13;;
8279;SDS011;8335;42.646;23.380;2023-03-23T14:01:43;7.80;;;6.63;;
8279;SDS011;8335;42.646;23.380;2023-03-23T14:04:11;9.53;;;6.23;;
8279;SDS011;8335;42.646;23.380;2023-03-23T14:06:40;13.43;;;6.80;;
8279;SDS011;8335;42.646;23.380;2023-03-23T14:09:11;9.97;;;6.50;;
8279;SDS011;8335;42.646;23.380;2023-03-23T14:11:47;8.17;;;6.27;;
8279;SDS011;8335;42.646;23.380;2023-03-23T14:14:20;10.90;;;6.87;;
8279;SDS011;8335;42.646;23.380;2023-03-23T14:16:52;8.90;;;6.60;;
8279;SDS011;8335;42.646;23.380;2023-03-23T14:19:21;9.50;;;6.93;;
8279;SDS011;8335;42.646;23.380;2023-03-23T14:21:52;9.00;;;6.73;;
8279;SDS011;8335;42.646;23.380;2023-03-23T14:24:21;7.13;;;6.20;;
8279;SDS011;8335;42.646;23.380;2023-03-23T14:26:50;12.07;;;7.00;;
8279;SDS011;8335;42.646;23.380;2023-03-23T14:29:19;7.37;;;6.17;;
8279;SDS011;8335;42.646;23.380;2023-03-23T14:31:49;10.27;;;6.83;;
8279;SDS011;8335;42.646;23.380;2023-03-23T14:34:21;9.80;;;6.63;;
8279;SDS011;8335;42.646;23.380;2023-03-23T14:36:51;7.63;;;5.73;;
8279;SDS011;8335;42.646;23.380;2023-03-23T14:39:20;9.20;;;6.90;;
8279;SDS011;8335;42.646;23.380;2023-03-23T14:41:50;7.80;;;6.50;;
8279;SDS011;8335;42.646;23.380;2023-03-23T14:44:21;8.30;;;6.60;;
8279;SDS011;8335;42.646;23.380;2023-03-23T14:46:50;8.60;;;6.00;;
8279;SDS011;8335;42.646;23.380;2023-03-23T14:49:19;8.83;;;6.10;;
8279;SDS011;8335;42.646;23.380;2023-03-23T14:51:53;8.47;;;6.63;;
8279;SDS011;8335;42.646;23.380;2023-03-23T14:54:21;8.37;;;6.40;;
8279;SDS011;8335;42.646;23.380;2023-03-23T14:56:50;7.67;;;6.40;;
8279;SDS011;8335;42.646;23.380;2023-03-23T14:59:17;11.00;;;6.43;;
8279;SDS011;8335;42.646;23.380;2023-03-23T15:01:45;8.70;;;6.40;;
8279;SDS011;8335;42.646;23.380;2023-03-23T15:04:14;8.00;;;6.30;;
8279;SDS011;8335;42.646;23.380;2023-03-23T15:06:45;10.30;;;6.47;;
8279;SDS011;8335;42.646;23.380;2023-03-23T15:09:16;8.60;;;6.63;;
8279;SDS011;8335;42.646;23.380;2023-03-23T15:11:51;9.97;;;6.00;;
8279;SDS011;8335;42.646;23.380;2023-03-23T15:14:21;10.73;;;7.47;;